Language selection

Weather shortcuts

Atlantic - Newfoundland: Past 24 Hour Conditions

 

East Chedabucto Bay - 44488

02:00 PM ADT 25 May 2024Buoy position: 45.45N 60.95W
Disclaimer

This table is a summary of hourly weather conditions for the past 24 hours.
Please note that these observations might not always be representative of weather conditions over their associated marine area.

Date / Time
(ADT)
Wind(knots) Wave height(m) Wave period(s) Pressure(kPa) Air tempC) Water tempC)
25 May 2024
14:00 NW 15 gusts 17 0.59 3.3 100.6 10 9
13:00 NW 19 gusts 23 0.52 3.1 100.5 10 8
12:00 NNW 15 gusts 18 0.45 3.2 100.5 11 8
11:00 NNW 16 gusts 21 0.43 3.4 100.4 12 8
10:00 NNW 13 gusts 16 0.45 3.5 100.4 11 8
9:00 NW 16 gusts 19 0.38 4.0 100.4 11 8
8:00 NW 14 gusts 18 0.37 4.3 100.4 12 8
7:00 NW 9 gusts 10 0.33 5.0 100.3 11 8
6:00 NW 8 gusts 9 0.35 5.1 100.3 10 8
5:00 WNW 6 gusts 8 0.36 4.9 100.2 11 8
4:00 NW 7 gusts 9 0.36 5.0 100.2 11 8
3:00 NW 9 gusts 10 0.35 5.3 100.2 11 8
2:00 NW 8 gusts 9 0.38 4.9 100.2 11 8
1:00 W 8 gusts 10 0.44 4.4 100.3 10 8
0:00 WSW 8 gusts 9 0.42 4.5 100.3 10 9
24 May 2024
23:00 W 7 gusts 9 0.49 4.3 100.3 10 9
22:00 W 5 gusts 6 0.56 4.1 100.3 11 9
21:00 NNE 3 gusts 5 0.58 3.6 100.3 11 9
20:00 W 9 gusts 13 0.55 4.1 100.3 10 9
19:00 SW 13 gusts 18 0.65 3.9 100.2 13 9
18:00 WSW 14 gusts 16 0.78 3.7 100.2 13 9
17:00 WSW 13 gusts 16 0.75 3.7 100.3 13 9
16:00 SW 19 gusts 22 0.71 3.6 100.2 12 9
15:00 SW 10 gusts 12 0.53 4.9 100.3 13 9
14:00 SW 11 gusts 12 0.51 5.2 100.4 12 9

Zoom-in to make a selection

Map of Atlantic - Newfoundland marine weather areas Banquereau - 44139 East Chedabucto Bay – 44488 West Chedabucto Bay – 44489 Blanc-Sablon Airport Cap Whittle Chevery Natashquan Airport Heath Point Îles de la Madeleine Airport Miscou Island Eskasoni (First Nations) Grand Étang Ingonish Beach North Mountain St.Paul Island J.A. Douglas McCurdy Sydney Airport Charlottetown Airport East Point North Cape Argentia Berry Hill Bonavista Burgeo Cape Race Corner Brook Daniel's Harbour Englee Ferolle Point La Scie Port aux Basques Sagona Island St. Anthony Airport St. John's Int'l Airport St. Lawrence Stephenville Airport Twillingate Winterland Branch Hill Wreckhouse Grates Cove Pool's Island Marticot Island Long Pond Cartwright Airport Mary's Harbour
Legend:
buoy Buoy
land station Land Station

Atlantic - Newfoundland Area

Another Region

Features

New Predicting and Alerting Coastal Flooding Program

Find out about coastal flooding coverage, forecasts and warnings in your region

Date modified: